Alango, Minnesota
Current Conditions -  °F | °C
As of 9:15 AM on Friday 31 Oct 2014 (Local Time) from KCQM Reporting Station
Overcast Overcast  
Wind Chill: 25°   Ceiling: 2200
Heat Index: 25°   Visibility: 10mi
Dew Point: 19°   Wind: 0mph
Humidity: 80%   Direction: NA
Pressure: 30.55"   Gusts: NA
Location:  47.7453°N, 92.7634°W
Report Text: KCQM 311415Z AUTO 00000KT 10SM OVC022 M04/M07 A3055 RMK AO2
Loading
Personal Weather Stations






























Interactive Weather Map
Tropical Storm Tracking
New forecast layout! Learn more

10-Day Weather Forecast

Advertisements
Track Severe Weather on mobile